createdAt,value
2017-12-24T00:00:05.187Z,30.50
2017-12-24T00:01:05.178Z,27.20
2017-12-24T00:02:05.163Z,28.20
2017-12-24T00:03:05.144Z,28.20
2017-12-24T00:04:05.130Z,28.70
2017-12-24T00:05:05.115Z,28.20
2017-12-24T00:06:05.100Z,27.00
2017-12-24T00:07:05.091Z,28.00
2017-12-24T00:08:05.076Z,30.40
2017-12-24T00:09:05.055Z,29.40
2017-12-24T00:10:05.046Z,26.80
2017-12-24T00:11:05.027Z,26.40
2017-12-24T00:12:05.023Z,28.10
2017-12-24T00:13:04.997Z,27.10
2017-12-24T00:14:04.986Z,25.00
2017-12-24T00:15:04.972Z,25.30
2017-12-24T00:16:04.958Z,25.30
2017-12-24T00:17:04.940Z,23.50
2017-12-24T00:18:04.924Z,25.50
2017-12-24T00:19:04.911Z,25.00
2017-12-24T00:20:04.896Z,23.60
2017-12-24T00:21:04.882Z,23.60
2017-12-24T00:22:04.868Z,20.70
2017-12-24T00:23:04.850Z,22.80
2017-12-24T00:24:04.839Z,21.90
2017-12-24T00:25:04.825Z,24.50
2017-12-24T00:26:04.808Z,21.30
2017-12-24T00:27:04.792Z,21.10
2017-12-24T00:28:04.780Z,21.10
2017-12-24T00:29:04.771Z,19.70
2017-12-24T00:30:04.758Z,22.30
2017-12-24T00:31:04.741Z,21.30
2017-12-24T00:32:04.720Z,21.70
2017-12-24T00:33:04.702Z,21.20
2017-12-24T00:34:04.692Z,19.50
2017-12-24T00:35:04.675Z,20.10
2017-12-24T00:36:04.661Z,20.00
2017-12-24T00:37:04.653Z,18.40
2017-12-24T00:38:04.648Z,17.20
2017-12-24T00:39:04.616Z,21.40
2017-12-24T00:40:04.609Z,18.60
2017-12-24T00:41:04.588Z,19.90
2017-12-24T00:42:04.579Z,20.10
2017-12-24T00:43:04.564Z,19.80
2017-12-24T00:44:04.543Z,22.10
2017-12-24T00:45:04.537Z,19.90
2017-12-24T00:46:04.513Z,18.30
2017-12-24T00:47:04.500Z,18.80
2017-12-24T00:48:04.488Z,17.90
2017-12-24T00:49:04.475Z,16.80
2017-12-24T00:50:04.457Z,16.90
2017-12-24T00:51:04.446Z,17.50
2017-12-24T00:52:04.425Z,16.90
2017-12-24T00:53:04.411Z,17.50
2017-12-24T00:54:04.395Z,17.00
2017-12-24T00:55:04.382Z,16.90
2017-12-24T00:56:04.369Z,17.40
2017-12-24T00:57:04.351Z,18.50
2017-12-24T00:58:04.342Z,16.90
2017-12-24T00:59:04.329Z,18.80
2017-12-24T01:00:04.313Z,18.70
2017-12-24T01:01:04.294Z,18.80
2017-12-24T01:02:04.282Z,19.10
2017-12-24T01:03:04.267Z,18.00
2017-12-24T01:04:04.251Z,17.80
2017-12-24T01:05:04.233Z,16.50
2017-12-24T01:06:04.218Z,19.40
2017-12-24T01:07:04.206Z,17.80
2017-12-24T01:08:04.188Z,18.00
2017-12-24T01:09:04.175Z,18.40
2017-12-24T01:10:04.159Z,17.00
2017-12-24T01:11:04.145Z,18.80
2017-12-24T01:12:04.132Z,17.00
2017-12-24T01:13:04.116Z,17.20
2017-12-24T01:14:04.105Z,16.20
2017-12-24T01:15:04.086Z,17.70
2017-12-24T01:16:04.083Z,16.70
2017-12-24T01:17:04.059Z,17.60
2017-12-24T01:18:04.042Z,19.60
2017-12-24T01:19:04.032Z,17.00
2017-12-24T01:20:04.013Z,17.50
2017-12-24T01:21:03.996Z,17.30
2017-12-24T01:22:03.981Z,17.10
2017-12-24T01:23:03.967Z,16.70
2017-12-24T01:24:03.953Z,18.30
2017-12-24T01:25:03.940Z,17.80
2017-12-24T01:26:03.927Z,17.10
2017-12-24T01:27:03.908Z,17.90
2017-12-24T01:28:03.894Z,18.60
2017-12-24T01:29:03.878Z,17.40
2017-12-24T01:30:03.861Z,18.00
2017-12-24T01:31:03.847Z,15.90
2017-12-24T01:32:03.833Z,15.60
2017-12-24T01:33:03.823Z,19.60
2017-12-24T01:34:03.813Z,20.00
2017-12-24T01:35:03.792Z,19.30
2017-12-24T01:36:03.775Z,17.50
2017-12-24T01:37:03.758Z,17.70
2017-12-24T01:38:03.742Z,18.10
2017-12-24T01:39:03.731Z,18.70
2017-12-24T01:40:03.712Z,18.80
2017-12-24T01:41:03.702Z,19.90
2017-12-24T01:42:03.685Z,17.30
2017-12-24T01:43:03.672Z,16.70
2017-12-24T01:44:03.655Z,18.00
2017-12-24T01:45:03.636Z,17.10
2017-12-24T01:46:03.629Z,18.00
2017-12-24T01:47:03.608Z,16.90
2017-12-24T01:48:03.593Z,18.90
2017-12-24T01:49:03.585Z,17.70
2017-12-24T01:50:03.565Z,17.30
2017-12-24T01:51:03.548Z,18.10
2017-12-24T01:52:03.533Z,18.30
2017-12-24T01:53:03.517Z,19.40
2017-12-24T01:54:03.501Z,17.20
2017-12-24T01:55:03.492Z,16.00
2017-12-24T01:56:03.475Z,16.70
2017-12-24T01:57:03.456Z,15.50
2017-12-24T01:58:03.447Z,15.00
2017-12-24T01:59:03.426Z,17.90
2017-12-24T02:00:03.416Z,16.80
2017-12-24T02:01:03.399Z,16.90
2017-12-24T02:02:03.390Z,17.30
2017-12-24T02:03:03.368Z,16.40
2017-12-24T02:04:03.354Z,16.80
2017-12-24T02:05:03.337Z,17.40
2017-12-24T02:06:03.329Z,18.10
2017-12-24T02:07:03.307Z,16.90
2017-12-24T02:08:03.293Z,17.50
2017-12-24T02:09:03.276Z,19.00
2017-12-24T02:10:03.275Z,17.30
2017-12-24T02:11:03.255Z,16.90
2017-12-24T02:12:03.234Z,16.50
2017-12-24T02:13:03.219Z,19.80
2017-12-24T02:14:03.205Z,17.80
2017-12-24T02:15:03.192Z,17.30
2017-12-24T02:16:03.174Z,18.40
2017-12-24T02:17:03.160Z,19.00
2017-12-24T02:18:03.142Z,17.20
2017-12-24T02:19:03.126Z,18.40
2017-12-24T02:20:03.144Z,18.30
2017-12-24T02:21:03.102Z,18.00
2017-12-24T02:22:03.081Z,18.90
2017-12-24T02:23:03.068Z,17.60
2017-12-24T02:24:03.058Z,16.70
2017-12-24T02:25:03.041Z,17.90
2017-12-24T02:26:03.020Z,19.50
2017-12-24T02:27:03.006Z,21.00
2017-12-24T02:28:02.994Z,20.20
2017-12-24T02:29:02.975Z,20.90
2017-12-24T02:30:02.967Z,21.60
2017-12-24T02:31:02.947Z,21.20
2017-12-24T02:32:02.939Z,19.00
2017-12-24T02:33:02.915Z,20.20
2017-12-24T02:34:02.909Z,20.60
2017-12-24T02:35:02.886Z,20.90
2017-12-24T02:36:02.871Z,18.70
2017-12-24T02:37:02.860Z,19.70
2017-12-24T02:38:02.844Z,20.10
2017-12-24T02:39:02.833Z,18.90
2017-12-24T02:40:02.812Z,19.80
2017-12-24T02:41:02.802Z,21.50
2017-12-24T02:42:02.782Z,19.40
2017-12-24T02:43:02.767Z,19.30
2017-12-24T02:44:02.751Z,21.40
2017-12-24T02:45:02.737Z,21.30
2017-12-24T02:46:02.721Z,20.40
2017-12-24T02:47:02.712Z,21.00
2017-12-24T02:48:02.693Z,22.30
2017-12-24T02:49:02.675Z,23.40
2017-12-24T02:50:02.661Z,21.20
2017-12-24T02:51:02.651Z,21.40
2017-12-24T02:52:02.632Z,23.30
2017-12-24T02:53:02.615Z,25.20
2017-12-24T02:54:02.601Z,24.50
2017-12-24T02:55:02.586Z,24.80
2017-12-24T02:56:02.569Z,26.30
2017-12-24T02:57:02.555Z,25.00
2017-12-24T02:58:02.541Z,23.90
2017-12-24T02:59:02.525Z,25.80
2017-12-24T03:00:02.511Z,27.90
2017-12-24T03:01:02.494Z,27.00
2017-12-24T03:02:02.478Z,28.20
2017-12-24T03:03:02.472Z,26.90
2017-12-24T03:04:02.449Z,24.70
2017-12-24T03:05:02.434Z,28.10
2017-12-24T03:06:02.419Z,26.90
2017-12-24T03:07:02.412Z,28.40
2017-12-24T03:08:02.394Z,27.80
2017-12-24T03:09:02.372Z,28.90
2017-12-24T03:10:02.359Z,27.20
2017-12-24T03:11:02.346Z,27.00
2017-12-24T03:12:02.328Z,26.70
2017-12-24T03:13:02.316Z,26.00
2017-12-24T03:14:02.304Z,26.50
2017-12-24T03:15:02.284Z,28.10
2017-12-24T03:16:02.267Z,29.50
2017-12-24T03:17:02.253Z,26.70
2017-12-24T03:18:02.241Z,29.40
2017-12-24T03:19:02.227Z,26.70
2017-12-24T03:20:02.208Z,27.70
2017-12-24T03:21:02.204Z,25.30
2017-12-24T03:22:02.181Z,26.30
2017-12-24T03:23:02.165Z,27.60
2017-12-24T03:24:02.152Z,28.10
2017-12-24T03:25:02.131Z,26.50
2017-12-24T03:26:02.121Z,26.20
2017-12-24T03:27:02.100Z,30.20
2017-12-24T03:28:02.091Z,28.40
2017-12-24T03:29:02.072Z,29.00
2017-12-24T03:30:02.058Z,28.20
2017-12-24T03:31:02.040Z,29.80
2017-12-24T03:32:02.026Z,29.30
2017-12-24T03:33:02.014Z,29.10
2017-12-24T03:34:01.994Z,31.40
2017-12-24T03:35:01.989Z,29.60
2017-12-24T03:36:01.965Z,32.20
2017-12-24T03:37:01.957Z,33.00
2017-12-24T03:38:01.934Z,30.20
2017-12-24T03:39:01.921Z,30.50
2017-12-24T03:40:01.905Z,30.30
2017-12-24T03:41:01.898Z,33.70
2017-12-24T03:42:01.879Z,30.30
2017-12-24T03:43:01.866Z,28.90
2017-12-24T03:44:01.849Z,29.00
2017-12-24T03:45:01.827Z,29.10
2017-12-24T03:46:01.815Z,28.50
2017-12-24T03:47:01.798Z,30.60
2017-12-24T03:48:01.783Z,30.10
2017-12-24T03:49:01.768Z,30.50
2017-12-24T03:50:01.752Z,29.90
2017-12-24T03:51:01.738Z,29.40
2017-12-24T03:52:01.728Z,29.80
2017-12-24T03:53:01.707Z,30.90
2017-12-24T03:54:01.697Z,30.90
2017-12-24T03:55:01.677Z,29.80
2017-12-24T03:56:01.668Z,30.80
2017-12-24T03:57:01.646Z,31.40
2017-12-24T03:58:01.634Z,31.30
2017-12-24T03:59:01.618Z,31.60
2017-12-24T04:00:01.602Z,31.00
2017-12-24T04:01:01.586Z,29.90
2017-12-24T04:02:01.570Z,30.40
2017-12-24T04:03:01.556Z,32.70
2017-12-24T04:04:01.542Z,32.10
2017-12-24T04:05:01.527Z,33.90
2017-12-24T04:06:01.517Z,31.90
2017-12-24T04:07:01.497Z,29.60
2017-12-24T04:08:01.480Z,31.00
2017-12-24T04:09:01.467Z,32.70
2017-12-24T04:10:01.451Z,31.90
2017-12-24T04:11:01.439Z,30.10
2017-12-24T04:12:01.421Z,27.50
2017-12-24T04:13:01.410Z,33.30
2017-12-24T04:14:01.395Z,31.20
2017-12-24T04:15:01.375Z,26.80
2017-12-24T04:16:01.367Z,27.10
2017-12-24T04:17:01.344Z,29.30
2017-12-24T04:18:01.337Z,30.10
2017-12-24T04:19:01.312Z,27.90
2017-12-24T04:20:01.307Z,28.40
2017-12-24T04:21:01.290Z,28.80
2017-12-24T04:22:01.272Z,29.70
2017-12-24T04:23:01.252Z,29.20
2017-12-24T04:24:01.282Z,29.30
2017-12-24T04:25:01.227Z,31.50
2017-12-24T04:26:01.209Z,30.60
2017-12-24T04:27:01.192Z,29.50
2017-12-24T04:28:01.182Z,28.80
2017-12-24T04:29:01.163Z,30.40
2017-12-24T04:30:01.146Z,29.60
2017-12-24T04:31:01.132Z,29.60
2017-12-24T04:32:01.122Z,29.40
2017-12-24T04:33:01.101Z,29.90
2017-12-24T04:34:01.086Z,26.70
2017-12-24T04:35:01.071Z,26.90
2017-12-24T04:36:01.056Z,29.40
2017-12-24T04:37:01.050Z,29.80
2017-12-24T04:38:01.031Z,28.50
2017-12-24T04:39:01.009Z,28.70
2017-12-24T04:40:00.997Z,28.50
2017-12-24T04:41:01.016Z,32.40
2017-12-24T04:42:00.971Z,29.10
2017-12-24T04:43:00.950Z,28.10
2017-12-24T04:44:00.935Z,28.30
2017-12-24T04:45:00.919Z,26.80
2017-12-24T04:46:00.905Z,28.00
2017-12-24T04:47:00.888Z,26.50
2017-12-24T04:48:00.874Z,28.40
2017-12-24T04:49:00.858Z,29.00
2017-12-24T04:50:00.845Z,29.20
2017-12-24T04:51:00.829Z,28.70
2017-12-24T04:52:00.819Z,28.70
2017-12-24T04:53:00.806Z,26.90
2017-12-24T04:54:00.789Z,29.90
2017-12-24T04:55:00.769Z,25.70
2017-12-24T04:56:00.753Z,30.80
2017-12-24T04:57:00.738Z,28.90
2017-12-24T04:58:00.720Z,30.40
2017-12-24T04:59:00.711Z,27.20
2017-12-24T05:00:00.699Z,28.50
2017-12-24T05:01:00.677Z,30.50
2017-12-24T05:02:00.659Z,28.50
2017-12-24T05:03:00.643Z,27.00
2017-12-24T05:04:00.630Z,27.20
2017-12-24T05:05:00.616Z,28.20
2017-12-24T05:06:00.599Z,29.50
2017-12-24T05:07:00.587Z,28.90
2017-12-24T05:08:00.576Z,28.10
2017-12-24T05:09:00.556Z,29.90
2017-12-24T05:10:00.546Z,28.20
2017-12-24T05:11:00.526Z,28.40
2017-12-24T05:12:00.506Z,24.80
2017-12-24T05:13:00.492Z,26.30
2017-12-24T05:14:00.484Z,27.60
2017-12-24T05:15:00.467Z,27.70
2017-12-24T05:16:00.445Z,27.20
2017-12-24T05:17:00.431Z,26.50
2017-12-24T05:18:00.419Z,26.10
2017-12-24T05:19:00.401Z,25.40
2017-12-24T05:20:00.392Z,28.10
2017-12-24T05:21:00.370Z,25.70
2017-12-24T05:22:00.361Z,24.80
2017-12-24T05:23:00.339Z,23.30
2017-12-24T05:24:00.325Z,25.30
2017-12-24T05:25:00.311Z,23.10
2017-12-24T05:26:00.297Z,22.10
2017-12-24T05:27:00.279Z,23.60
2017-12-24T05:28:00.269Z,28.40
2017-12-24T05:29:00.253Z,23.40
2017-12-24T05:30:00.232Z,24.40
2017-12-24T05:31:00.217Z,23.20
2017-12-24T05:32:00.201Z,22.70
2017-12-24T05:33:00.187Z,23.60
2017-12-24T05:34:00.171Z,21.60
2017-12-24T05:35:00.160Z,25.00
2017-12-24T05:36:00.143Z,24.30
2017-12-24T05:37:00.130Z,22.10
2017-12-24T05:38:00.110Z,24.30
2017-12-24T05:39:00.100Z,23.30
2017-12-24T05:40:00.080Z,22.30
2017-12-24T05:41:00.062Z,22.50
2017-12-24T05:42:00.050Z,23.10
2017-12-24T05:43:00.036Z,24.50
2017-12-24T05:44:00.021Z,21.70
2017-12-24T05:45:00.006Z,24.00
2017-12-24T05:45:59.987Z,20.40
2017-12-24T05:46:59.980Z,22.70
2017-12-24T05:47:59.957Z,22.40
2017-12-24T05:48:59.945Z,21.20
2017-12-24T05:49:59.925Z,22.40
2017-12-24T05:50:59.911Z,22.90
2017-12-24T05:51:59.898Z,20.10
2017-12-24T05:52:59.878Z,21.40
2017-12-24T05:53:59.863Z,21.90
2017-12-24T05:54:59.849Z,19.90
2017-12-24T05:55:59.835Z,20.90
2017-12-24T05:56:59.817Z,21.10
2017-12-24T05:57:59.803Z,19.60
2017-12-24T05:58:59.793Z,19.20
2017-12-24T05:59:59.772Z,18.90
2017-12-24T06:00:59.758Z,21.60
2017-12-24T06:01:59.742Z,21.10
2017-12-24T06:02:59.727Z,18.80
2017-12-24T06:03:59.713Z,21.80
2017-12-24T06:04:59.695Z,21.40
2017-12-24T06:05:59.680Z,18.70
2017-12-24T06:06:59.666Z,20.90
2017-12-24T06:07:59.649Z,19.60
2017-12-24T06:08:59.635Z,19.60
2017-12-24T06:09:59.620Z,21.10
2017-12-24T06:10:59.604Z,23.30
2017-12-24T06:11:59.595Z,19.50
2017-12-24T06:12:59.575Z,19.20
2017-12-24T06:13:59.560Z,19.20
2017-12-24T06:14:59.542Z,19.70
2017-12-24T06:15:59.526Z,20.50
2017-12-24T06:16:59.512Z,17.80
2017-12-24T06:17:59.497Z,21.20
2017-12-24T06:18:59.486Z,20.10
2017-12-24T06:19:59.464Z,19.30
2017-12-24T06:20:59.451Z,20.30
2017-12-24T06:21:59.432Z,19.90
2017-12-24T06:22:59.421Z,19.70
2017-12-24T06:23:59.404Z,18.40
2017-12-24T06:24:59.387Z,21.50
2017-12-24T06:25:59.375Z,22.00
2017-12-24T06:26:59.357Z,20.60
2017-12-24T06:27:59.342Z,20.20
2017-12-24T06:28:59.326Z,19.50
2017-12-24T06:29:59.311Z,22.30
2017-12-24T06:30:59.295Z,26.60
2017-12-24T06:31:59.279Z,20.60
2017-12-24T06:32:59.265Z,18.90
2017-12-24T06:33:59.251Z,19.30
2017-12-24T06:34:59.233Z,19.00
2017-12-24T06:35:59.219Z,18.50
2017-12-24T06:36:59.200Z,18.20
2017-12-24T06:37:59.186Z,19.10
2017-12-24T06:38:59.171Z,17.60
2017-12-24T06:39:59.157Z,21.30
2017-12-24T06:40:59.140Z,21.30
2017-12-24T06:41:59.125Z,19.60
2017-12-24T06:42:59.115Z,19.30
2017-12-24T06:43:59.113Z,17.60
2017-12-24T06:44:59.086Z,17.40
2017-12-24T06:45:59.070Z,17.20
2017-12-24T06:46:59.059Z,19.90
2017-12-24T06:47:59.041Z,18.70
2017-12-24T06:48:59.017Z,19.10
2017-12-24T06:49:59.002Z,20.20
2017-12-24T06:50:58.989Z,16.40
2017-12-24T06:51:58.978Z,16.40
2017-12-24T06:52:58.959Z,18.00
2017-12-24T06:53:58.937Z,17.40
2017-12-24T06:54:58.929Z,17.80
2017-12-24T06:55:58.930Z,18.00
2017-12-24T06:56:58.904Z,15.90
2017-12-24T06:57:58.884Z,19.00
2017-12-24T06:58:58.863Z,17.50
2017-12-24T06:59:58.857Z,18.60
2017-12-24T07:00:58.837Z,16.30
2017-12-24T07:01:58.824Z,14.70
2017-12-24T07:02:58.803Z,18.20
2017-12-24T07:03:58.786Z,18.70
2017-12-24T07:04:58.774Z,18.30
2017-12-24T07:05:58.753Z,16.30
2017-12-24T07:06:58.737Z,16.70
2017-12-24T07:07:58.726Z,18.00
2017-12-24T07:08:58.705Z,15.70
2017-12-24T07:09:58.688Z,15.60
2017-12-24T07:10:58.682Z,16.50
2017-12-24T07:11:58.666Z,18.10
2017-12-24T07:12:58.642Z,16.80
2017-12-24T07:13:58.626Z,15.70
2017-12-24T07:14:58.616Z,15.50
2017-12-24T07:15:58.595Z,15.20
2017-12-24T07:16:58.582Z,15.70
2017-12-24T07:17:58.563Z,15.90
2017-12-24T07:18:58.554Z,16.10
2017-12-24T07:19:58.538Z,17.10
2017-12-24T07:20:58.522Z,14.60
2017-12-24T07:21:58.512Z,16.70
2017-12-24T07:22:58.484Z,16.20
2017-12-24T07:23:58.470Z,14.70
2017-12-24T07:24:58.459Z,15.80
2017-12-24T07:25:58.443Z,16.80
2017-12-24T07:26:58.421Z,14.60
2017-12-24T07:27:58.407Z,16.60
2017-12-24T07:28:58.392Z,13.90
2017-12-24T07:29:58.376Z,15.40
2017-12-24T07:30:58.361Z,14.70
2017-12-24T07:31:58.351Z,14.00
2017-12-24T07:32:58.335Z,15.10
2017-12-24T07:33:58.318Z,16.90
2017-12-24T07:34:58.306Z,14.90
2017-12-24T07:35:58.283Z,14.60
2017-12-24T07:36:58.266Z,15.00
2017-12-24T07:37:58.251Z,15.90
2017-12-24T07:38:58.237Z,14.60
2017-12-24T07:39:58.226Z,16.80
2017-12-24T07:40:58.210Z,15.60
2017-12-24T07:41:58.219Z,14.60
2017-12-24T07:42:58.216Z,15.60
2017-12-24T07:43:58.171Z,15.30
2017-12-24T07:44:58.142Z,13.80
2017-12-24T07:45:58.127Z,14.10
2017-12-24T07:46:58.113Z,13.60
2017-12-24T07:47:58.098Z,14.40
2017-12-24T07:48:58.081Z,14.30
2017-12-24T07:49:58.065Z,14.10
2017-12-24T07:50:58.054Z,12.80
2017-12-24T07:51:58.040Z,15.00
2017-12-24T07:52:58.021Z,13.20
2017-12-24T07:53:58.003Z,12.60
2017-12-24T07:54:57.994Z,12.70
2017-12-24T07:55:57.974Z,10.80
2017-12-24T07:56:57.957Z,12.40
2017-12-24T07:57:57.948Z,11.20
2017-12-24T07:58:57.933Z,11.70
2017-12-24T07:59:57.912Z,11.30
2017-12-24T08:00:57.895Z,13.00
2017-12-24T08:01:57.886Z,10.30
2017-12-24T08:02:57.870Z,11.60
2017-12-24T08:03:57.852Z,10.70
2017-12-24T08:04:57.837Z,10.80
2017-12-24T08:05:57.820Z,11.90
2017-12-24T08:06:57.804Z,11.10
2017-12-24T08:07:57.802Z,11.00
2017-12-24T08:08:57.775Z,11.00
2017-12-24T08:09:57.762Z,10.60
2017-12-24T08:10:57.744Z,10.60
2017-12-24T08:11:57.732Z,11.10
2017-12-24T08:12:57.719Z,12.30
2017-12-24T08:13:57.696Z,11.60
2017-12-24T08:14:57.682Z,12.60
2017-12-24T08:15:57.675Z,10.70
2017-12-24T08:16:57.649Z,11.90
2017-12-24T08:17:57.639Z,9.90
2017-12-24T08:18:57.625Z,12.70
2017-12-24T08:19:57.602Z,11.20
2017-12-24T08:20:57.585Z,12.10
2017-12-24T08:21:57.576Z,11.80
2017-12-24T08:22:57.556Z,12.30
2017-12-24T08:23:57.548Z,12.20
2017-12-24T08:24:57.530Z,11.80
2017-12-24T08:25:57.512Z,10.90
2017-12-24T08:26:57.495Z,11.30
2017-12-24T08:27:57.479Z,11.90
2017-12-24T08:28:57.465Z,10.30
2017-12-24T08:29:57.445Z,12.40
2017-12-24T08:30:57.435Z,9.40
2017-12-24T08:31:57.419Z,12.20
2017-12-24T08:32:57.400Z,11.00
2017-12-24T08:33:57.387Z,10.10
2017-12-24T08:34:57.375Z,11.20
2017-12-24T08:35:57.355Z,10.50
2017-12-24T08:36:57.341Z,8.60
2017-12-24T08:37:57.323Z,10.50
2017-12-24T08:38:57.307Z,10.70
2017-12-24T08:39:57.297Z,9.00
2017-12-24T08:40:57.276Z,11.80
2017-12-24T08:41:57.263Z,10.50
2017-12-24T08:42:57.251Z,10.60
2017-12-24T08:43:57.231Z,9.60
2017-12-24T08:44:57.215Z,9.60
2017-12-24T08:45:57.198Z,11.10
2017-12-24T08:46:57.184Z,10.40
2017-12-24T08:47:57.174Z,8.40
2017-12-24T08:48:57.152Z,8.40
2017-12-24T08:49:57.137Z,8.00
2017-12-24T08:50:57.129Z,11.40
2017-12-24T08:51:57.108Z,8.30
2017-12-24T08:52:57.090Z,9.70
2017-12-24T08:53:57.077Z,10.80
2017-12-24T08:54:57.060Z,10.80
2017-12-24T08:55:57.045Z,11.50
2017-12-24T08:56:57.038Z,9.60
2017-12-24T08:57:57.015Z,9.40
2017-12-24T08:58:57.005Z,11.80
2017-12-24T08:59:56.984Z,11.10
2017-12-24T09:00:56.972Z,10.50
2017-12-24T09:01:56.958Z,10.90
2017-12-24T09:02:56.939Z,9.10
2017-12-24T09:03:56.922Z,10.30
2017-12-24T09:04:56.911Z,10.30
2017-12-24T09:05:56.891Z,10.00
2017-12-24T09:06:56.884Z,9.00
2017-12-24T09:07:56.861Z,9.40
2017-12-24T09:08:56.846Z,10.10
2017-12-24T09:09:56.853Z,8.50
2017-12-24T09:10:56.815Z,11.40
2017-12-24T09:11:56.804Z,9.20
2017-12-24T09:12:56.786Z,8.90
2017-12-24T09:13:56.775Z,11.70
2017-12-24T09:14:56.760Z,10.80
2017-12-24T09:15:56.743Z,9.90
2017-12-24T09:16:56.722Z,10.50
2017-12-24T09:17:56.749Z,10.50
2017-12-24T09:18:56.692Z,9.80
2017-12-24T09:19:56.676Z,9.50
2017-12-24T09:20:56.660Z,12.10
2017-12-24T09:21:56.644Z,9.80
2017-12-24T09:22:56.633Z,10.00
2017-12-24T09:23:56.621Z,11.80
2017-12-24T09:24:56.600Z,10.30
2017-12-24T09:25:56.587Z,9.50
2017-12-24T09:26:56.569Z,9.40
2017-12-24T09:27:56.552Z,9.20
2017-12-24T09:28:56.534Z,10.40
2017-12-24T09:29:56.521Z,11.40
2017-12-24T09:30:56.505Z,8.80
2017-12-24T09:31:56.492Z,9.20
2017-12-24T09:32:56.482Z,10.10
2017-12-24T09:33:56.462Z,10.70
2017-12-24T09:34:56.445Z,10.60
2017-12-24T09:35:56.432Z,10.30
2017-12-24T09:36:56.412Z,11.10
2017-12-24T09:37:56.399Z,9.80
2017-12-24T09:38:56.388Z,8.20
2017-12-24T09:39:56.366Z,9.30
2017-12-24T09:40:56.357Z,10.30
2017-12-24T09:41:56.338Z,9.50
2017-12-24T09:42:56.326Z,10.70
2017-12-24T09:43:56.304Z,9.30
2017-12-24T09:44:56.294Z,8.80
2017-12-24T09:45:56.277Z,9.20
2017-12-24T09:46:56.261Z,9.00
2017-12-24T09:47:56.246Z,10.70
2017-12-24T09:48:56.232Z,9.90
2017-12-24T09:49:56.214Z,9.70
2017-12-24T09:50:56.199Z,10.80
2017-12-24T09:51:56.184Z,10.00
2017-12-24T09:52:56.174Z,11.90
2017-12-24T09:53:56.153Z,9.00
2017-12-24T09:54:56.138Z,9.60
2017-12-24T09:55:56.127Z,9.00
2017-12-24T09:56:56.106Z,9.40
2017-12-24T09:57:56.090Z,9.40
2017-12-24T09:58:56.083Z,9.30
2017-12-24T09:59:56.060Z,9.00
2017-12-24T10:00:56.048Z,9.20
2017-12-24T10:01:56.031Z,9.70
2017-12-24T10:02:56.015Z,9.50
2017-12-24T10:03:56.000Z,11.50
2017-12-24T10:04:55.991Z,11.40
2017-12-24T10:05:55.974Z,8.80
2017-12-24T10:06:55.953Z,8.50
2017-12-24T10:07:55.939Z,8.10
2017-12-24T10:08:55.929Z,8.80
2017-12-24T10:09:55.908Z,9.00
2017-12-24T10:10:55.894Z,8.10
2017-12-24T10:11:55.877Z,8.20
2017-12-24T10:12:55.873Z,7.90
2017-12-24T10:13:55.852Z,7.20
2017-12-24T10:14:55.833Z,6.70
2017-12-24T10:15:55.816Z,7.50
2017-12-24T10:16:55.806Z,6.60
2017-12-24T10:17:55.789Z,6.90
2017-12-24T10:18:55.773Z,6.80
2017-12-24T10:19:55.758Z,7.40
2017-12-24T10:20:55.748Z,8.30
2017-12-24T10:21:55.733Z,6.80
2017-12-24T10:22:55.716Z,5.60
2017-12-24T10:23:55.695Z,7.80
2017-12-24T10:24:55.680Z,7.20
2017-12-24T10:25:55.665Z,6.00
2017-12-24T10:26:55.651Z,7.60
2017-12-24T10:27:55.635Z,7.30
2017-12-24T10:28:55.624Z,6.60
2017-12-24T10:29:55.605Z,6.80
2017-12-24T10:30:55.593Z,7.50
2017-12-24T10:31:55.578Z,6.50
2017-12-24T10:32:55.559Z,5.90
2017-12-24T10:33:55.545Z,6.40
2017-12-24T10:34:55.538Z,5.00
2017-12-24T10:35:55.518Z,5.30
2017-12-24T10:36:55.507Z,6.00
2017-12-24T10:37:55.489Z,5.30
2017-12-24T10:38:55.469Z,4.30
2017-12-24T10:39:55.457Z,6.80
2017-12-24T10:40:55.445Z,5.60
2017-12-24T10:41:55.424Z,6.00
2017-12-24T10:42:55.411Z,6.30
2017-12-24T10:43:55.396Z,5.10
2017-12-24T10:44:55.380Z,5.10
2017-12-24T10:45:55.365Z,5.20
2017-12-24T10:46:55.383Z,4.70
2017-12-24T10:47:55.335Z,6.20
2017-12-24T10:48:55.326Z,5.00
2017-12-24T10:49:55.305Z,5.80
2017-12-24T10:50:55.293Z,6.30
2017-12-24T10:51:55.278Z,6.10
2017-12-24T10:52:55.263Z,4.70
2017-12-24T10:53:55.247Z,6.20
2017-12-24T10:54:55.232Z,5.60
2017-12-24T10:55:55.217Z,7.00
2017-12-24T10:56:55.202Z,5.60
2017-12-24T10:57:55.184Z,6.40
2017-12-24T10:58:55.176Z,7.10
2017-12-24T10:59:55.161Z,6.40
2017-12-24T11:00:55.141Z,5.70
2017-12-24T11:01:55.162Z,6.00
2017-12-24T11:02:55.117Z,5.90
2017-12-24T11:03:55.094Z,6.30
2017-12-24T11:04:55.080Z,7.80
2017-12-24T11:05:55.067Z,7.00
2017-12-24T11:06:55.055Z,7.80
2017-12-24T11:07:55.037Z,8.20
2017-12-24T11:08:55.030Z,7.30
2017-12-24T11:09:55.004Z,7.70
2017-12-24T11:10:54.990Z,8.10
2017-12-24T11:11:54.980Z,11.60
2017-12-24T11:12:54.960Z,8.50
2017-12-24T11:13:54.944Z,8.70
2017-12-24T11:14:54.928Z,7.80
2017-12-24T11:15:54.918Z,7.60
2017-12-24T11:16:54.900Z,7.90
2017-12-24T11:17:54.892Z,8.50
2017-12-24T11:18:54.869Z,10.40
2017-12-24T11:19:54.863Z,9.60
2017-12-24T11:20:54.839Z,9.50
2017-12-24T11:21:54.825Z,10.50
2017-12-24T11:22:54.808Z,9.40
2017-12-24T11:23:54.793Z,10.70
2017-12-24T11:24:54.782Z,12.10
2017-12-24T11:25:54.762Z,10.40
2017-12-24T11:26:54.749Z,10.10
2017-12-24T11:27:54.732Z,9.70
2017-12-24T11:28:54.716Z,10.30
2017-12-24T11:29:54.711Z,9.60
2017-12-24T11:30:54.687Z,11.00
2017-12-24T11:31:54.677Z,9.50
2017-12-24T11:32:54.661Z,8.70
2017-12-24T11:33:54.642Z,9.20
2017-12-24T11:34:54.633Z,9.10
2017-12-24T11:35:54.619Z,9.60
2017-12-24T11:36:54.599Z,9.60
2017-12-24T11:37:54.582Z,10.40
2017-12-24T11:38:54.571Z,10.50
2017-12-24T11:39:54.553Z,9.70
2017-12-24T11:40:54.541Z,9.50
2017-12-24T11:41:54.519Z,10.60
2017-12-24T11:42:54.505Z,9.70
2017-12-24T11:43:54.493Z,10.50
2017-12-24T11:44:54.473Z,11.20
2017-12-24T11:45:54.465Z,10.90
2017-12-24T11:46:54.446Z,9.20
2017-12-24T11:47:54.438Z,9.20
2017-12-24T11:48:54.420Z,10.40
2017-12-24T11:49:54.407Z,11.90
2017-12-24T11:50:54.385Z,9.70
2017-12-24T11:51:54.379Z,9.90
2017-12-24T11:52:54.355Z,9.40
2017-12-24T11:53:54.346Z,9.80
2017-12-24T11:54:54.326Z,9.60
2017-12-24T11:55:54.315Z,8.70
2017-12-24T11:56:54.300Z,9.40
2017-12-24T11:57:54.280Z,8.00
2017-12-24T11:58:54.264Z,9.60
2017-12-24T11:59:54.253Z,9.80
2017-12-24T12:00:54.236Z,8.00
2017-12-24T12:01:54.221Z,9.30
2017-12-24T12:02:54.209Z,10.50
2017-12-24T12:03:54.199Z,7.90
2017-12-24T12:04:54.174Z,10.40
2017-12-24T12:05:54.165Z,8.90
2017-12-24T12:06:54.147Z,9.20
2017-12-24T12:07:54.128Z,9.90
2017-12-24T12:08:54.118Z,10.20
2017-12-24T12:09:54.102Z,10.50
2017-12-24T12:10:54.085Z,10.40
2017-12-24T12:11:54.068Z,8.80
2017-12-24T12:12:54.056Z,10.10
2017-12-24T12:13:54.037Z,11.20
2017-12-24T12:14:54.088Z,10.10
2017-12-24T12:15:54.006Z,9.70
2017-12-24T12:16:53.992Z,9.40
2017-12-24T12:17:53.976Z,9.30
2017-12-24T12:18:53.962Z,9.70
2017-12-24T12:19:53.952Z,10.30
2017-12-24T12:20:53.931Z,9.90
2017-12-24T12:21:53.922Z,9.80
2017-12-24T12:22:53.900Z,10.70
2017-12-24T12:23:53.892Z,9.20
2017-12-24T12:24:53.876Z,11.90
2017-12-24T12:25:53.853Z,9.70
2017-12-24T12:26:53.845Z,9.40
2017-12-24T12:27:53.825Z,11.40
2017-12-24T12:28:53.811Z,10.10
2017-12-24T12:29:53.802Z,10.60
2017-12-24T12:30:53.781Z,8.80
2017-12-24T12:31:53.764Z,8.90
2017-12-24T12:32:53.748Z,8.50
2017-12-24T12:33:53.795Z,11.70
2017-12-24T12:34:53.720Z,10.10
2017-12-24T12:35:53.704Z,10.90
2017-12-24T12:36:53.692Z,10.60
2017-12-24T12:37:53.672Z,11.10
2017-12-24T12:38:53.660Z,9.70
2017-12-24T12:39:53.643Z,10.20
2017-12-24T12:40:53.626Z,10.50
2017-12-24T12:41:53.613Z,8.80
2017-12-24T12:42:53.599Z,7.70
2017-12-24T12:43:53.589Z,9.50
2017-12-24T12:44:53.567Z,9.70
2017-12-24T12:45:53.551Z,8.40
2017-12-24T12:46:53.536Z,9.60
2017-12-24T12:47:53.521Z,8.60
2017-12-24T12:48:53.508Z,9.80
2017-12-24T12:49:53.492Z,9.20
2017-12-24T12:50:53.476Z,8.50
2017-12-24T12:51:53.462Z,9.10
2017-12-24T12:52:53.452Z,10.40
2017-12-24T12:53:53.439Z,9.30
2017-12-24T12:54:53.414Z,10.60
2017-12-24T12:55:53.406Z,8.90
2017-12-24T12:56:53.384Z,9.10
2017-12-24T12:57:53.374Z,8.30